Blue River, Oregon
Current Conditions -  °F | °C
As of 6:22 AM on Wednesday 28 Jan 2015 (Local Time) from KEUG Reporting Station
Light Fog Light Fog  
Wind Chill: 42°   Ceiling: 6500
Heat Index: 42°   Visibility: 0.75mi
Dew Point: 40°   Wind: 0mph
Humidity: 92%   Direction: NA
Pressure: 30.31"   Gusts: NA
Location:  44.15°N, 122.34°W
Report Text: KEUG 281422Z 00000KT 3/4SM R16R/4500VP6000FT BR BCFG SCT001 BKN065 06/04 A3031 RMK AO2 FG SCT001 T00560044
Loading
Personal Weather Stations






























Interactive Weather Map New forecast layout! Learn more

10-Day Weather Forecast

Advertisements
Track Severe Weather on mobile